Time;durP1;ratioP1;P1;durP2;ratioP2;P2;SDS_P1;SDS_P2;PMS_P1;PMS_P2;Temp;Humidity;BMP_temperature;BMP_pressure;BME280_temperature;BME280_humidity;BME280_pressure;Samples;Min_cycle;Max_cycle;Signal;HPM_P1;HPM_P2
2022/07/19 00:00:23;;;;;;;8.03;5.23;;;20.20;72.80;;;;;;5032171;28;20543;-59
2022/07/19 00:02:50;;;;;;;9.60;5.77;;;20.20;73.20;;;;;;5016319;28;20485;-59
2022/07/19 00:05:18;;;;;;;5.03;4.47;;;20.10;73.60;;;;;;5032581;28;20468;-59
2022/07/19 00:07:46;;;;;;;7.60;5.50;;;20.10;73.80;;;;;;5032243;28;20603;-59
2022/07/19 00:10:16;;;;;;;8.13;4.90;;;20.00;74.30;;;;;;5032871;28;20891;-58
2022/07/19 00:12:45;;;;;;;7.90;5.73;;;20.00;75.00;;;;;;5032900;28;20490;-58
2022/07/19 00:15:15;;;;;;;6.50;4.90;;;19.90;75.50;;;;;;5032232;28;20476;-58
2022/07/19 00:17:44;;;;;;;6.00;4.83;;;19.80;76.10;;;;;;5032492;28;20846;-59
2022/07/19 00:20:13;;;;;;;7.57;4.87;;;19.80;76.80;;;;;;5029908;28;20442;-59
2022/07/19 00:22:40;;;;;;;5.00;4.50;;;19.70;77.90;;;;;;5033307;28;20491;-58
2022/07/19 00:25:08;;;;;;;6.33;4.13;;;19.70;79.80;;;;;;5034198;28;20526;-59
2022/07/19 00:27:36;;;;;;;5.00;4.40;;;19.70;80.90;;;;;;5037372;28;20527;-58
2022/07/19 00:30:06;;;;;;;5.50;4.70;;;19.70;82.00;;;;;;5037027;28;20479;-58
2022/07/19 00:32:33;;;;;;;6.93;4.10;;;19.70;83.20;;;;;;5036688;28;20461;-58
2022/07/19 00:35:00;;;;;;;6.53;3.80;;;19.60;84.50;;;;;;5036934;28;20476;-58
2022/07/19 00:37:28;;;;;;;4.70;3.70;;;19.50;85.90;;;;;;5036670;28;20473;-57
2022/07/19 00:39:55;;;;;;;5.40;4.17;;;19.50;87.30;;;;;;5036436;28;20960;-57
2022/07/19 00:42:22;;;;;;;5.30;4.27;;;19.40;88.20;;;;;;5036694;28;20449;-59
2022/07/19 00:44:50;;;;;;;8.93;4.00;;;19.40;89.00;;;;;;5037369;28;20449;-59
2022/07/19 00:47:19;;;;;;;5.57;4.03;;;19.30;89.90;;;;;;5037143;28;20465;-58
2022/07/19 00:49:46;;;;;;;11.00;3.97;;;19.20;90.30;;;;;;5037598;28;20480;-59
2022/07/19 00:52:16;;;;;;;6.20;4.00;;;19.10;90.70;;;;;;5037337;28;21000;-58
2022/07/19 00:54:44;;;;;;;6.20;4.03;;;19.10;91.20;;;;;;5037139;28;20487;-59
2022/07/19 00:57:12;;;;;;;4.93;3.70;;;19.00;91.60;;;;;;5037396;28;20522;-59
2022/07/19 00:59:40;;;;;;;8.10;3.77;;;19.00;92.00;;;;;;5037194;28;20933;-58
2022/07/19 01:02:07;;;;;;;8.30;4.07;;;18.90;92.40;;;;;;5036448;28;20530;-58
2022/07/19 01:04:36;;;;;;;7.33;4.17;;;18.80;92.60;;;;;;5036561;28;20491;-59
2022/07/19 01:07:03;;;;;;;5.80;3.67;;;18.80;92.80;;;;;;5036948;28;20836;-59
2022/07/19 01:09:31;;;;;;;5.43;3.73;;;18.80;93.00;;;;;;5036532;28;20445;-59
2022/07/19 01:11:58;;;;;;;5.40;3.60;;;18.70;93.10;;;;;;5036679;28;20503;-59
2022/07/19 01:14:26;;;;;;;6.53;3.17;;;18.70;93.00;;;;;;5036578;28;20545;-59
2022/07/19 01:16:53;;;;;;;5.77;3.93;;;18.70;92.90;;;;;;5035562;28;20465;-59
2022/07/19 01:19:20;;;;;;;5.40;3.67;;;18.70;92.90;;;;;;5035702;28;20540;-59
2022/07/19 01:21:49;;;;;;;6.13;3.90;;;18.70;93.10;;;;;;5036266;28;20453;-58
2022/07/19 01:24:17;;;;;;;5.70;3.07;;;18.60;93.10;;;;;;5036344;28;20444;-58
2022/07/19 01:26:44;;;;;;;5.47;3.67;;;18.60;93.10;;;;;;5035732;28;20499;-60
2022/07/19 01:29:16;;;;;;;4.63;3.80;;;18.60;93.10;;;;;;5016588;28;20480;-58
2022/07/19 01:31:43;;;;;;;6.40;3.67;;;18.60;93.10;;;;;;5032713;28;20992;-58
2022/07/19 01:34:10;;;;;;;4.87;4.20;;;18.50;93.10;;;;;;5035683;28;21003;-59
2022/07/19 01:36:37;;;;;;;9.07;3.80;;;18.50;93.00;;;;;;5034552;28;21063;-59
2022/07/19 01:39:06;;;;;;;8.53;3.50;;;18.50;92.90;;;;;;5035879;28;20515;-59
2022/07/19 01:41:33;;;;;;;4.73;3.70;;;18.50;92.90;;;;;;5035070;28;20445;-58
2022/07/19 01:44:01;;;;;;;4.57;3.47;;;18.40;92.80;;;;;;5035713;28;20452;-59
2022/07/19 01:46:28;;;;;;;4.40;3.97;;;18.40;92.80;;;;;;5035137;28;20563;-58
2022/07/19 01:48:55;;;;;;;9.33;3.43;;;18.40;92.80;;;;;;5035391;28;20480;-59
2022/07/19 01:51:22;;;;;;;8.60;3.40;;;18.30;93.00;;;;;;5035261;28;20534;-57
2022/07/19 01:53:50;;;;;;;4.87;3.43;;;18.30;93.10;;;;;;5035522;28;20522;-58
2022/07/19 01:56:18;;;;;;;8.90;3.80;;;18.30;93.20;;;;;;5035072;28;20473;-58
2022/07/19 01:58:46;;;;;;;6.97;3.80;;;18.20;93.20;;;;;;5035181;28;20889;-58
2022/07/19 02:01:13;;;;;;;4.30;3.40;;;18.20;93.40;;;;;;5034923;28;20500;-58
2022/07/19 02:03:40;;;;;;;6.60;3.57;;;18.20;93.30;;;;;;5034807;28;20544;-58
2022/07/19 02:06:08;;;;;;;8.20;3.83;;;18.20;93.40;;;;;;5034995;28;20566;-58
2022/07/19 02:08:35;;;;;;;5.73;3.20;;;18.10;93.40;;;;;;5034840;28;20596;-58
2022/07/19 02:11:34;;;;;;;11.17;3.13;;;18.10;93.50;;;;;;5034305;28;20892;-59
2022/07/19 02:13:51;;;;;;;8.23;3.53;;;18.10;93.50;;;;;;5034584;28;20448;-58
2022/07/19 02:16:19;;;;;;;4.20;3.17;;;18.10;93.60;;;;;;5034379;28;20509;-58
2022/07/19 02:18:46;;;;;;;3.90;3.33;;;18.00;93.70;;;;;;5033993;28;20497;-58
2022/07/19 02:21:13;;;;;;;5.30;3.67;;;18.00;94.00;;;;;;5034372;28;20487;-58
2022/07/19 02:23:41;;;;;;;8.63;3.40;;;18.00;94.20;;;;;;5033935;28;20480;-58
2022/07/19 02:26:08;;;;;;;5.27;4.03;;;17.90;94.40;;;;;;5033881;28;20548;-59
2022/07/19 02:28:35;;;;;;;7.07;4.10;;;17.90;94.60;;;;;;5059593;22;21072;-62
2022/07/19 02:31:05;;;;;;;5.63;3.70;;;17.80;94.70;;;;;;5037146;28;20956;-61
2022/07/19 02:33:32;;;;;;;4.50;3.43;;;17.80;94.80;;;;;;5037530;28;20449;-61
2022/07/19 02:35:59;;;;;;;4.00;3.60;;;17.80;94.90;;;;;;5035494;28;20516;-61
2022/07/19 02:38:26;;;;;;;8.60;3.43;;;17.70;94.90;;;;;;5049439;28;20461;-61
2022/07/19 02:40:54;;;;;;;6.80;3.20;;;17.70;94.90;;;;;;5045993;28;20441;-60
2022/07/19 02:43:21;;;;;;;4.30;3.13;;;17.70;95.00;;;;;;5047077;28;20469;-60
2022/07/19 02:45:48;;;;;;;4.53;3.30;;;17.70;95.00;;;;;;5055769;28;20460;-61
2022/07/19 02:48:17;;;;;;;5.30;3.03;;;17.60;95.00;;;;;;5054044;28;20491;-62
2022/07/19 02:50:45;;;;;;;6.23;3.97;;;17.60;95.40;;;;;;5039257;28;20481;-61
2022/07/19 02:53:13;;;;;;;4.47;2.80;;;17.50;95.20;;;;;;5036005;28;20445;-61
2022/07/19 02:55:40;;;;;;;4.40;2.60;;;17.50;95.30;;;;;;5035187;28;20477;-61
2022/07/19 02:58:07;;;;;;;7.77;4.07;;;17.50;95.30;;;;;;5034083;28;21062;-61
2022/07/19 03:00:35;;;;;;;4.97;3.63;;;17.40;95.30;;;;;;5033577;28;20472;-62
2022/07/19 03:05:45;;;;;;;6.90;3.67;;;17.40;95.40;;;;;;5032253;28;20798;-63
2022/07/19 03:08:13;;;;;;;5.30;3.17;;;17.30;95.50;;;;;;5033717;28;20460;-61
2022/07/19 03:10:40;;;;;;;5.27;3.40;;;17.30;95.40;;;;;;5034124;28;20441;-61
2022/07/19 03:13:08;;;;;;;5.20;3.70;;;17.30;95.30;;;;;;5034114;28;20504;-61
2022/07/19 03:15:36;;;;;;;5.13;3.13;;;17.30;95.20;;;;;;5033793;28;20481;-62
2022/07/19 03:18:03;;;;;;;3.37;2.97;;;17.30;95.10;;;;;;5033941;28;20976;-61
2022/07/19 03:20:31;;;;;;;5.50;2.97;;;17.20;94.90;;;;;;5033759;28;20449;-61
2022/07/19 03:22:59;;;;;;;4.23;2.80;;;17.20;94.70;;;;;;5034133;28;20484;-62
2022/07/19 03:25:27;;;;;;;5.23;3.00;;;17.20;94.40;;;;;;5033589;28;20445;-60
2022/07/19 03:27:54;;;;;;;6.87;3.40;;;17.30;94.20;;;;;;5014216;28;20920;-61
2022/07/19 03:30:22;;;;;;;5.33;3.23;;;17.20;94.00;;;;;;5027564;28;20484;-61
2022/07/19 03:32:50;;;;;;;5.20;3.37;;;17.30;93.80;;;;;;5020155;28;20555;-61
2022/07/19 03:35:17;;;;;;;9.53;3.67;;;17.30;93.60;;;;;;5034811;28;20477;-61
2022/07/19 03:37:44;;;;;;;6.93;3.30;;;17.30;93.40;;;;;;5034912;28;20464;-61
2022/07/19 03:40:13;;;;;;;3.90;3.20;;;17.30;93.20;;;;;;5035380;28;20444;-61
2022/07/19 03:42:41;;;;;;;3.90;2.90;;;17.30;93.10;;;;;;5034223;28;20449;-61
2022/07/19 03:45:09;;;;;;;4.53;2.70;;;17.40;93.00;;;;;;5034852;28;20498;-61
2022/07/19 03:47:36;;;;;;;6.07;4.27;;;17.40;92.90;;;;;;5034315;28;20515;-62
2022/07/19 03:50:04;;;;;;;5.60;3.47;;;17.40;92.70;;;;;;5033410;28;20449;-61
2022/07/19 03:52:32;;;;;;;6.50;3.00;;;17.40;92.60;;;;;;5033149;28;20990;-61
2022/07/19 03:54:59;;;;;;;3.77;3.10;;;17.50;92.50;;;;;;5033695;28;20445;-61
2022/07/19 03:57:28;;;;;;;6.07;3.40;;;17.60;92.40;;;;;;5032659;28;20485;-61
2022/07/19 03:59:55;;;;;;;4.57;2.70;;;17.60;92.20;;;;;;5032383;28;20445;-61
2022/07/19 04:02:22;;;;;;;4.60;2.93;;;17.70;92.10;;;;;;5032845;28;20449;-61
2022/07/19 04:04:50;;;;;;;5.30;3.60;;;17.80;92.00;;;;;;5032842;28;20484;-61
2022/07/19 04:10:00;;;;;;;11.90;3.43;;;18.10;91.70;;;;;;5106094;27;20627;-62
2022/07/19 04:12:27;;;;;;;4.27;3.00;;;18.60;91.40;;;;;;5110705;28;20539;-61
2022/07/19 04:14:55;;;;;;;4.10;2.80;;;19.10;90.30;;;;;;5107360;28;20441;-61
2022/07/19 04:17:23;;;;;;;3.60;2.67;;;19.60;87.60;;;;;;5107095;28;20553;-61
2022/07/19 04:19:51;;;;;;;5.50;3.13;;;20.00;84.20;;;;;;5075707;28;20447;-61
2022/07/19 04:22:18;;;;;;;5.13;3.33;;;20.40;81.00;;;;;;5070376;28;20513;-62
2022/07/19 04:24:45;;;;;;;4.83;3.07;;;20.70;79.20;;;;;;5069732;28;20858;-61
2022/07/19 04:27:14;;;;;;;4.70;2.80;;;21.00;76.40;;;;;;5085365;28;20526;-62
2022/07/19 04:29:41;;;;;;;4.27;3.00;;;21.30;74.30;;;;;;5080419;28;20477;-61
2022/07/19 04:32:08;;;;;;;4.07;3.00;;;21.60;72.90;;;;;;5089578;28;20458;-61
2022/07/19 04:34:36;;;;;;;3.40;2.80;;;21.80;71.10;;;;;;5089600;28;20493;-61
2022/07/19 04:37:03;;;;;;;4.40;3.10;;;22.10;69.20;;;;;;5087137;28;20470;-61
2022/07/19 04:39:30;;;;;;;5.90;3.33;;;22.40;67.80;;;;;;5079006;28;20502;-60
2022/07/19 04:41:57;;;;;;;3.83;2.53;;;22.50;66.50;;;;;;5087285;28;20486;-60
2022/07/19 04:44:26;;;;;;;4.50;3.00;;;22.70;65.60;;;;;;5089250;28;20515;-61
2022/07/19 04:46:53;;;;;;;3.60;3.03;;;22.80;64.70;;;;;;5089225;28;20452;-61
2022/07/19 04:49:21;;;;;;;3.73;2.63;;;23.10;63.70;;;;;;5089292;28;20560;-61
2022/07/19 04:51:48;;;;;;;4.27;3.30;;;23.30;62.40;;;;;;5090047;28;20877;-61
2022/07/19 04:54:15;;;;;;;4.70;3.80;;;23.60;61.20;;;;;;5089869;28;20447;-61
2022/07/19 04:56:42;;;;;;;4.07;3.20;;;23.70;60.10;;;;;;5089304;28;20564;-62
2022/07/19 04:59:10;;;;;;;4.27;2.90;;;23.90;59.20;;;;;;5080412;28;20498;-61
2022/07/19 05:01:38;;;;;;;6.87;2.70;;;24.10;58.20;;;;;;5081549;28;20492;-60
2022/07/19 05:04:06;;;;;;;4.07;2.90;;;24.30;56.90;;;;;;5080501;28;20444;-60
2022/07/19 05:06:33;;;;;;;4.43;2.53;;;24.50;55.70;;;;;;5069371;28;20487;-61
2022/07/19 05:09:00;;;;;;;5.50;3.00;;;24.40;54.90;;;;;;5068700;28;20574;-61
2022/07/19 05:11:29;;;;;;;4.10;2.83;;;24.40;54.40;;;;;;5069022;28;20494;-61
2022/07/19 05:13:56;;;;;;;2.97;2.53;;;24.40;53.70;;;;;;5069178;28;20458;-61
2022/07/19 05:16:23;;;;;;;6.13;3.07;;;24.40;53.30;;;;;;5074202;28;20526;-60
2022/07/19 05:18:52;;;;;;;9.10;3.63;;;24.40;53.00;;;;;;5071666;28;20850;-62
2022/07/19 05:21:19;;;;;;;5.93;3.40;;;24.50;52.70;;;;;;5060050;28;20445;-62
2022/07/19 05:23:47;;;;;;;4.30;2.90;;;24.60;52.30;;;;;;5055516;28;20445;-62
2022/07/19 05:26:14;;;;;;;3.63;3.23;;;24.70;51.80;;;;;;5055288;28;20528;-62
2022/07/19 05:28:41;;;;;;;4.43;3.40;;;24.80;51.20;;;;;;5055261;28;20551;-62
2022/07/19 05:31:09;;;;;;;4.90;3.77;;;25.10;50.60;;;;;;5065789;28;20489;-62
2022/07/19 05:33:36;;;;;;;3.73;3.30;;;25.40;49.80;;;;;;5067898;28;20467;-62
2022/07/19 05:36:05;;;;;;;6.97;3.73;;;25.60;49.10;;;;;;5060162;28;20515;-62
2022/07/19 05:38:34;;;;;;;5.87;3.27;;;25.80;48.30;;;;;;5055226;28;20553;-62
2022/07/19 05:41:01;;;;;;;3.77;3.10;;;26.00;47.70;;;;;;5055104;28;20532;-62
2022/07/19 05:43:29;;;;;;;8.13;4.43;;;26.10;47.10;;;;;;5055419;28;20493;-60
2022/07/19 05:45:56;;;;;;;5.10;3.93;;;26.30;46.70;;;;;;5055164;28;20446;-62
2022/07/19 05:48:23;;;;;;;4.20;3.30;;;26.30;46.30;;;;;;5058698;28;20508;-62
2022/07/19 05:50:50;;;;;;;4.80;4.30;;;26.40;46.00;;;;;;5063070;28;20538;-61
2022/07/19 05:53:19;;;;;;;4.80;3.37;;;26.40;45.70;;;;;;5061340;28;20475;-61
2022/07/19 05:55:47;;;;;;;7.03;3.50;;;26.50;45.40;;;;;;5064728;28;20451;-62
2022/07/19 05:58:17;;;;;;;4.23;3.00;;;26.50;45.10;;;;;;5068288;28;20535;-61
2022/07/19 06:01:17;;;;;;;6.13;3.27;;;26.50;45.10;;;;;;5065635;28;20481;-61
2022/07/19 06:03:31;;;;;;;4.50;3.10;;;26.40;45.10;;;;;;5055149;28;20534;-62
2022/07/19 06:05:59;;;;;;;7.40;3.70;;;26.20;45.30;;;;;;5054559;28;20446;-62
2022/07/19 06:08:28;;;;;;;7.27;3.27;;;26.10;45.40;;;;;;5054363;28;20580;-62
2022/07/19 06:10:55;;;;;;;8.97;2.93;;;26.10;45.30;;;;;;5054524;28;20507;-62
2022/07/19 06:13:22;;;;;;;5.50;3.60;;;26.20;45.10;;;;;;5054971;28;20447;-62
2022/07/19 06:15:50;;;;;;;8.73;3.20;;;26.40;44.80;;;;;;5055179;28;20450;-60
2022/07/19 06:18:18;;;;;;;4.10;2.87;;;26.40;44.40;;;;;;5057401;28;20465;-62
2022/07/19 06:20:45;;;;;;;4.97;3.13;;;26.40;44.20;;;;;;5063900;28;20500;-61
2022/07/19 06:23:13;;;;;;;3.67;3.30;;;26.40;44.10;;;;;;5075004;28;20445;-61
2022/07/19 06:25:41;;;;;;;3.23;2.70;;;26.40;44.00;;;;;;5073946;28;20470;-62
2022/07/19 06:28:09;;;;;;;7.57;3.87;;;26.40;43.90;;;;;;5074747;28;20882;-61
2022/07/19 06:30:36;;;;;;;6.27;2.50;;;26.40;43.90;;;;;;5074138;28;20577;-60
2022/07/19 06:33:03;;;;;;;4.17;3.10;;;26.30;43.80;;;;;;5060756;28;20480;-60
2022/07/19 06:35:30;;;;;;;3.63;2.77;;;26.20;43.90;;;;;;5055086;28;20509;-62
2022/07/19 06:37:58;;;;;;;3.23;2.90;;;26.10;44.10;;;;;;5058592;28;20559;-62
2022/07/19 06:40:25;;;;;;;8.00;3.00;;;25.90;44.20;;;;;;5075632;28;20504;-62
2022/07/19 06:42:54;;;;;;;3.70;2.70;;;25.80;44.50;;;;;;5074155;28;20479;-63
2022/07/19 06:45:21;;;;;;;5.40;4.10;;;25.70;44.70;;;;;;5073772;28;20817;-62
2022/07/19 06:47:50;;;;;;;18.53;3.50;;;25.70;44.80;;;;;;5073933;28;21073;-61
2022/07/19 06:50:17;;;;;;;6.20;3.00;;;25.70;44.80;;;;;;5073438;28;20484;-60
2022/07/19 06:52:45;;;;;;;3.90;3.47;;;25.80;44.80;;;;;;5074451;28;20532;-60
2022/07/19 06:55:12;;;;;;;5.37;2.90;;;25.80;44.80;;;;;;5062986;28;20486;-60
2022/07/19 06:57:39;;;;;;;7.23;3.50;;;25.80;44.80;;;;;;5053849;28;20539;-60
2022/07/19 07:00:10;;;;;;;6.73;3.13;;;25.80;44.90;;;;;;5053898;28;20507;-61
2022/07/19 07:02:38;;;;;;;6.93;3.60;;;25.80;44.90;;;;;;5053910;28;20439;-61
2022/07/19 07:05:06;;;;;;;5.43;2.90;;;25.90;44.90;;;;;;5055072;28;20447;-61
2022/07/19 07:07:33;;;;;;;4.90;3.33;;;26.10;44.90;;;;;;5060643;28;20503;-61
2022/07/19 07:10:01;;;;;;;3.37;3.00;;;26.20;44.70;;;;;;5056390;28;20557;-61
2022/07/19 07:12:29;;;;;;;4.97;3.50;;;26.40;44.60;;;;;;5073348;28;20448;-60
2022/07/19 07:14:56;;;;;;;6.20;3.70;;;26.40;44.30;;;;;;5063788;28;20462;-61
2022/07/19 07:17:25;;;;;;;6.97;3.00;;;26.50;44.10;;;;;;5053697;28;20502;-60
2022/07/19 07:19:53;;;;;;;5.37;2.73;;;26.70;43.90;;;;;;5053432;28;20525;-61
2022/07/19 07:22:20;;;;;;;4.93;2.60;;;26.80;43.60;;;;;;5058992;28;20878;-60
2022/07/19 07:24:47;;;;;;;5.80;3.57;;;27.00;43.30;;;;;;5060104;28;20446;-61
2022/07/19 07:27:14;;;;;;;5.00;3.10;;;27.10;42.80;;;;;;5053186;28;21007;-61
2022/07/19 07:29:42;;;;;;;6.90;3.70;;;27.30;42.40;;;;;;5066241;28;20473;-61
2022/07/19 07:32:09;;;;;;;6.73;2.87;;;27.50;42.00;;;;;;5073375;28;21033;-63
2022/07/19 07:34:38;;;;;;;6.00;3.00;;;27.60;41.50;;;;;;5070317;28;20540;-62
2022/07/19 07:37:05;;;;;;;7.70;3.50;;;27.80;41.20;;;;;;5053054;28;20446;-63
2022/07/19 07:39:32;;;;;;;3.40;3.10;;;27.90;41.00;;;;;;5052939;28;20549;-61
2022/07/19 07:42:00;;;;;;;3.07;2.77;;;28.00;40.80;;;;;;5054045;28;21073;-61
2022/07/19 07:44:27;;;;;;;4.00;2.77;;;28.20;40.60;;;;;;5053145;28;20969;-60
2022/07/19 07:46:54;;;;;;;3.20;2.53;;;28.30;40.10;;;;;;5053136;28;20447;-61
2022/07/19 07:49:22;;;;;;;5.63;3.13;;;28.40;39.80;;;;;;5053136;28;20512;-60
2022/07/19 07:51:50;;;;;;;3.63;3.10;;;28.50;39.30;;;;;;5053307;28;20478;-62
2022/07/19 07:54:18;;;;;;;7.40;2.87;;;28.60;38.90;;;;;;5052955;28;20454;-62
2022/07/19 07:56:45;;;;;;;6.30;3.10;;;28.70;38.60;;;;;;5052841;28;20462;-61
2022/07/19 07:59:12;;;;;;;6.67;2.57;;;28.90;38.40;;;;;;5053176;28;20535;-62
2022/07/19 08:01:40;;;;;;;5.13;2.77;;;29.00;38.10;;;;;;5053295;28;20452;-62
2022/07/19 08:04:07;;;;;;;3.30;2.73;;;29.10;37.80;;;;;;5053529;28;20504;-63
2022/07/19 08:06:34;;;;;;;3.33;2.97;;;29.20;37.40;;;;;;5054703;28;20478;-63
2022/07/19 08:09:03;;;;;;;4.63;2.83;;;29.30;37.00;;;;;;5055513;28;20854;-63
2022/07/19 08:11:31;;;;;;;5.47;2.80;;;29.40;36.80;;;;;;5060260;28;20453;-65
2022/07/19 08:13:58;;;;;;;4.40;2.80;;;29.50;36.60;;;;;;5060325;28;20452;-61
2022/07/19 08:16:25;;;;;;;3.27;2.97;;;29.60;36.40;;;;;;5055972;28;20505;-62
2022/07/19 08:18:53;;;;;;;8.50;3.47;;;29.70;36.20;;;;;;5053782;28;20465;-63
2022/07/19 08:21:20;;;;;;;7.50;2.80;;;29.70;36.00;;;;;;5053971;28;20471;-62
2022/07/19 08:23:47;;;;;;;3.57;2.63;;;29.80;35.90;;;;;;5054054;28;20449;-62
2022/07/19 08:26:16;;;;;;;3.10;2.30;;;30.00;35.70;;;;;;5053584;28;20506;-63
2022/07/19 08:28:46;;;;;;;7.37;2.90;;;30.10;35.30;;;;;;5055557;28;20489;-64
2022/07/19 08:31:13;;;;;;;5.57;3.07;;;30.20;34.90;;;;;;5052884;28;20490;-63
2022/07/19 08:33:41;;;;;;;5.37;2.80;;;30.30;34.70;;;;;;5052842;28;20478;-63
2022/07/19 08:36:10;;;;;;;5.43;2.50;;;30.40;35.20;;;;;;5052873;28;20484;-64
2022/07/19 08:38:38;;;;;;;3.97;2.73;;;30.50;34.40;;;;;;5052471;28;20490;-61
2022/07/19 08:41:06;;;;;;;5.57;2.60;;;30.50;34.20;;;;;;5052576;28;20485;-63
2022/07/19 08:43:35;;;;;;;3.70;2.80;;;30.70;34.10;;;;;;5052702;28;20838;-62
2022/07/19 08:46:03;;;;;;;3.10;2.77;;;30.80;33.60;;;;;;5052665;28;20477;-62
2022/07/19 08:48:34;;;;;;;2.80;2.60;;;31.00;33.40;;;;;;5052348;28;20471;-62
2022/07/19 08:51:02;;;;;;;6.57;2.50;;;31.10;33.30;;;;;;5052958;28;20507;-63
2022/07/19 08:53:37;;;;;;;2.73;2.30;;;31.20;33.10;;;;;;5052594;28;20442;-63
2022/07/19 08:57:56;;;;;;;7.13;2.90;;;31.40;32.70;;;;;;5054981;28;20426;-62
2022/07/19 08:58:54;;;;;;;3.53;2.90;;;31.50;32.50;;;;;;5055868;28;20477;-62
2022/07/19 09:01:21;;;;;;;5.63;2.80;;;31.60;32.30;;;;;;5056111;28;20447;-62
2022/07/19 09:04:08;;;;;;;3.97;2.60;;;31.70;32.00;;;;;;5055787;28;20495;-62
2022/07/19 09:06:40;;;;;;;4.53;3.03;;;31.80;31.70;;;;;;5055580;28;20913;-61
2022/07/19 09:09:07;;;;;;;4.77;3.00;;;31.90;31.60;;;;;;5055611;28;20469;-62
2022/07/19 09:11:36;;;;;;;4.60;2.97;;;32.00;31.50;;;;;;5056108;28;20588;-62
2022/07/19 09:14:10;;;;;;;3.27;2.20;;;32.10;31.20;;;;;;5055748;28;20546;-62
2022/07/19 09:16:56;;;;;;;5.33;2.70;;;32.20;30.80;;;;;;5055976;28;20455;-64
2022/07/19 09:19:25;;;;;;;4.60;2.17;;;32.30;30.40;;;;;;5056247;28;20481;-63
2022/07/19 09:22:00;;;;;;;4.00;3.00;;;32.40;30.10;;;;;;5055864;28;20446;-61
2022/07/19 09:24:29;;;;;;;6.50;2.67;;;32.50;29.90;;;;;;5055385;28;20450;-62
2022/07/19 09:26:58;;;;;;;6.67;2.70;;;32.60;29.70;;;;;;5055591;28;20931;-62
2022/07/19 09:29:27;;;;;;;4.10;2.90;;;32.80;29.50;;;;;;5055647;28;20538;-62
2022/07/19 09:32:03;;;;;;;4.33;2.00;;;33.00;29.30;;;;;;5055544;28;20487;-62
2022/07/19 09:34:32;;;;;;;3.20;2.27;;;33.20;28.90;;;;;;5055431;28;20489;-62
2022/07/19 09:37:09;;;;;;;5.10;2.60;;;33.20;28.70;;;;;;5055183;28;20485;-62
2022/07/19 09:39:39;;;;;;;5.00;3.20;;;33.20;28.70;;;;;;5055230;28;20507;-62
2022/07/19 09:42:06;;;;;;;4.13;2.80;;;33.20;28.80;;;;;;5055365;28;20448;-62
2022/07/19 09:44:35;;;;;;;8.20;3.67;;;33.20;28.90;;;;;;5055077;28;20543;-62
2022/07/19 09:47:02;;;;;;;3.50;2.53;;;33.20;29.00;;;;;;5055224;28;20534;-62
2022/07/19 09:49:30;;;;;;;4.10;2.63;;;33.20;29.20;;;;;;5055304;28;20522;-63
2022/07/19 09:51:58;;;;;;;2.93;2.60;;;33.30;29.00;;;;;;5055288;28;20452;-63
2022/07/19 09:54:27;;;;;;;4.73;2.27;;;33.40;28.80;;;;;;5054841;28;20483;-62
2022/07/19 09:56:55;;;;;;;7.20;2.77;;;33.40;28.70;;;;;;5060019;28;20483;-62
2022/07/19 09:59:24;;;;;;;5.10;2.60;;;33.40;28.80;;;;;;5057231;28;20960;-62
2022/07/19 10:01:54;;;;;;;5.30;3.80;;;33.30;28.90;;;;;;5067241;28;20447;-62
2022/07/19 10:04:24;;;;;;;7.37;3.07;;;33.40;29.10;;;;;;5061296;28;20485;-61
2022/07/19 10:06:52;;;;;;;3.80;2.80;;;33.40;29.20;;;;;;5069611;28;20938;-62
2022/07/19 10:09:21;;;;;;;4.80;2.60;;;33.40;29.30;;;;;;5072429;28;20525;-61
2022/07/19 10:11:49;;;;;;;5.70;2.50;;;33.50;29.30;;;;;;5054928;28;20511;-63
2022/07/19 10:14:16;;;;;;;2.70;2.43;;;33.60;29.30;;;;;;5054873;28;20589;-63
2022/07/19 10:17:06;;;;;;;2.93;2.63;;;33.60;29.10;;;;;;5054489;28;20482;-60
2022/07/19 10:19:40;;;;;;;4.53;2.87;;;33.70;29.00;;;;;;5054110;28;20472;-61
2022/07/19 10:22:11;;;;;;;3.03;2.30;;;33.90;28.60;;;;;;5057462;28;20490;-61
2022/07/19 10:24:50;;;;;;;2.30;2.10;;;34.00;28.30;;;;;;5054837;28;20460;-62
2022/07/19 10:27:35;;;;;;;7.30;2.47;;;34.10;28.10;;;;;;5056915;28;20578;-62
2022/07/19 10:30:20;;;;;;;2.80;2.27;;;34.30;28.00;;;;;;5072189;28;20982;-61
2022/07/19 10:32:50;;;;;;;4.10;2.70;;;34.30;27.60;;;;;;5055041;28;20547;-61
2022/07/19 10:35:19;;;;;;;4.30;2.80;;;34.40;27.50;;;;;;5053835;28;20472;-62
2022/07/19 10:37:48;;;;;;;2.93;2.20;;;34.50;27.50;;;;;;5053772;28;20556;-63
2022/07/19 10:40:35;;;;;;;3.30;2.77;;;34.50;27.20;;;;;;5053905;28;20506;-63
2022/07/19 10:43:07;;;;;;;4.10;2.17;;;34.60;27.10;;;;;;5034063;28;20464;-63
2022/07/19 10:45:34;;;;;;;3.80;2.03;;;34.60;26.90;;;;;;5033877;28;20451;-63
2022/07/19 10:48:09;;;;;;;3.50;2.00;;;34.60;26.70;;;;;;5034288;28;20865;-61
2022/07/19 10:50:53;;;;;;;7.00;2.10;;;34.60;26.40;;;;;;5034575;28;20463;-62
2022/07/19 10:53:54;;;;;;;2.40;1.97;;;34.50;26.30;;;;;;5073331;28;20526;-63
2022/07/19 10:56:24;;;;;;;6.63;2.53;;;34.40;26.20;;;;;;5073532;28;20866;-63
2022/07/19 10:58:52;;;;;;;3.47;2.20;;;34.60;26.20;;;;;;5073783;28;20459;-62
2022/07/19 11:01:21;;;;;;;2.67;2.30;;;34.60;26.00;;;;;;5059567;28;20489;-62
2022/07/19 11:03:51;;;;;;;3.40;3.10;;;34.80;26.00;;;;;;5073516;28;20549;-62
2022/07/19 11:06:24;;;;;;;4.00;1.67;;;34.90;25.80;;;;;;5074263;28;20439;-63
2022/07/19 11:08:55;;;;;;;4.70;2.00;;;35.10;25.60;;;;;;5073706;28;20471;-63
2022/07/19 11:11:23;;;;;;;6.80;2.33;;;35.20;25.30;;;;;;5052348;28;20518;-62
2022/07/19 11:13:52;;;;;;;5.10;2.10;;;35.30;25.00;;;;;;5059817;28;20443;-63
2022/07/19 11:16:19;;;;;;;5.47;2.07;;;35.30;24.50;;;;;;5071315;28;20450;-63
2022/07/19 11:18:47;;;;;;;3.13;2.10;;;35.40;24.10;;;;;;5061299;28;20550;-64
2022/07/19 11:21:17;;;;;;;3.60;1.90;;;35.50;24.10;;;;;;5054090;28;20516;-64
2022/07/19 11:23:46;;;;;;;3.73;1.80;;;35.70;23.90;;;;;;5053899;28;20686;-64
2022/07/19 11:26:15;;;;;;;3.47;2.13;;;35.80;23.70;;;;;;5053577;28;20826;-63
2022/07/19 11:28:43;;;;;;;3.57;2.53;;;35.90;23.70;;;;;;5054035;28;20467;-63
2022/07/19 11:31:16;;;;;;;2.63;2.40;;;35.90;23.80;;;;;;5053241;28;20613;-63
2022/07/19 11:33:44;;;;;;;2.40;2.20;;;36.10;23.80;;;;;;5053581;28;20447;-62
2022/07/19 11:36:14;;;;;;;5.00;2.00;;;36.10;23.80;;;;;;5061772;28;20448;-63
2022/07/19 11:38:45;;;;;;;6.20;2.27;;;36.10;23.80;;;;;;5065793;28;20562;-63
2022/07/19 11:41:15;;;;;;;4.07;2.40;;;36.00;23.90;;;;;;5063223;28;20985;-63
2022/07/19 11:43:43;;;;;;;2.77;2.13;;;36.00;24.20;;;;;;5061923;28;20520;-64
2022/07/19 11:46:10;;;;;;;6.90;2.90;;;36.10;24.20;;;;;;5058424;28;20444;-63
2022/07/19 11:48:38;;;;;;;4.53;2.47;;;36.30;24.10;;;;;;5056256;28;20479;-63
2022/07/19 11:51:08;;;;;;;5.70;2.63;;;36.40;23.80;;;;;;5054699;28;20598;-64
2022/07/19 11:53:38;;;;;;;8.70;2.50;;;36.50;23.70;;;;;;5054306;28;20972;-63
2022/07/19 11:56:17;;;;;;;2.50;2.30;;;36.70;23.50;;;;;;5053699;28;21014;-63
2022/07/19 11:58:45;;;;;;;3.83;2.50;;;36.90;23.20;;;;;;5053603;28;20482;-63
2022/07/19 12:01:12;;;;;;;2.87;2.10;;;37.20;22.80;;;;;;5054032;28;20466;-63
2022/07/19 12:03:40;;;;;;;2.60;2.03;;;37.60;22.40;;;;;;5053856;28;20452;-64
2022/07/19 12:06:09;;;;;;;7.27;2.20;;;38.10;21.90;;;;;;5053827;28;20506;-64
2022/07/19 12:08:40;;;;;;;4.67;2.87;;;38.70;21.50;;;;;;5053247;28;20514;-64
2022/07/19 12:11:27;;;;;;;3.00;2.43;;;39.20;20.90;;;;;;5053319;28;20498;-64
2022/07/19 12:13:57;;;;;;;2.90;2.30;;;39.60;20.30;;;;;;5053804;28;20931;-64
2022/07/19 12:16:25;;;;;;;5.93;2.80;;;39.90;20.00;;;;;;5053756;28;20444;-64
2022/07/19 12:18:54;;;;;;;3.30;3.00;;;40.20;19.70;;;;;;5053508;28;20897;-63
2022/07/19 12:21:24;;;;;;;4.57;2.83;;;40.50;19.40;;;;;;5053034;28;20440;-63
2022/07/19 12:24:17;;;;;;;3.13;2.60;;;40.90;19.30;;;;;;5053385;28;20440;-63
2022/07/19 12:27:00;;;;;;;6.40;2.07;;;41.10;19.00;;;;;;5053099;28;20464;-64
2022/07/19 12:29:29;;;;;;;4.13;2.90;;;41.30;19.00;;;;;;5053852;28;20433;-63
2022/07/19 12:31:59;;;;;;;7.53;3.30;;;41.20;18.70;;;;;;5057434;28;20538;-62
2022/07/19 12:34:28;;;;;;;4.13;2.40;;;41.20;18.80;;;;;;5057355;28;20475;-63
2022/07/19 12:36:56;;;;;;;4.77;2.87;;;41.30;18.70;;;;;;5058322;28;20444;-61
2022/07/19 12:39:29;;;;;;;3.30;3.00;;;41.20;18.40;;;;;;5058331;28;20452;-64
2022/07/19 12:42:01;;;;;;;7.00;3.07;;;40.90;18.50;;;;;;5072850;28;20447;-63
2022/07/19 12:44:29;;;;;;;5.10;2.93;;;40.60;18.50;;;;;;5076743;28;20480;-63
2022/07/19 12:46:56;;;;;;;6.60;2.70;;;40.00;18.70;;;;;;5076976;28;20518;-64
2022/07/19 12:49:24;;;;;;;4.70;2.77;;;39.50;19.10;;;;;;5063405;28;20963;-62
2022/07/19 12:51:52;;;;;;;3.40;2.43;;;39.10;19.40;;;;;;5056457;28;20487;-63
2022/07/19 12:54:19;;;;;;;6.50;2.70;;;38.90;19.30;;;;;;5056716;28;20866;-64
2022/07/19 12:56:47;;;;;;;3.63;2.53;;;38.60;19.40;;;;;;5055724;28;20475;-64
2022/07/19 13:02:00;;;;;;;5.97;3.10;;;38.10;19.40;;;;;;5056195;28;20494;-63